createdAt,value
2022-11-30T00:00:09.496Z,98963.09
2022-11-30T00:02:35.650Z,98960.44
2022-11-30T00:05:01.824Z,98964.16
2022-11-30T00:07:27.968Z,98964.88
2022-11-30T00:09:54.099Z,98962.88
2022-11-30T00:12:20.232Z,98955.78
2022-11-30T00:14:46.657Z,98950.91
2022-11-30T00:17:13.031Z,98953.53
2022-11-30T00:19:39.146Z,98959.63
2022-11-30T00:22:05.250Z,98951.56
2022-11-30T00:24:31.350Z,98954.09
2022-11-30T00:26:57.473Z,98950.63
2022-11-30T00:29:23.617Z,98958.97
2022-11-30T00:31:49.710Z,98953.53
2022-11-30T00:34:15.811Z,98950.03
2022-11-30T00:36:41.906Z,98952.81
2022-11-30T00:39:07.997Z,98951.72
2022-11-30T00:41:34.102Z,98953.75
2022-11-30T00:44:00.216Z,98953.53
2022-11-30T00:46:26.330Z,98963.19
2022-11-30T00:48:52.504Z,98949.03
2022-11-30T00:51:18.648Z,98952.66
2022-11-30T00:53:44.751Z,98955.63
2022-11-30T00:56:10.851Z,98954.44
2022-11-30T00:58:36.941Z,98948.56
2022-11-30T01:01:03.097Z,98946.91
2022-11-30T01:03:29.237Z,98958.59
2022-11-30T01:05:55.326Z,98947.56
2022-11-30T01:08:21.417Z,98955.50
2022-11-30T01:10:47.533Z,98947.34
2022-11-30T01:13:13.635Z,98952.88
2022-11-30T01:15:39.729Z,98955.38
2022-11-30T01:18:05.855Z,98956.28
2022-11-30T01:20:31.961Z,98959.78
2022-11-30T01:22:58.066Z,98958.16
2022-11-30T01:25:24.209Z,98952.34
2022-11-30T01:27:50.307Z,98966.16
2022-11-30T01:30:16.393Z,98969.75
2022-11-30T01:32:42.533Z,98962.69
2022-11-30T01:35:08.636Z,98966.28
2022-11-30T01:37:34.750Z,98960.78
2022-11-30T01:40:00.899Z,98963.66
2022-11-30T01:42:27.000Z,98954.63
2022-11-30T01:44:53.100Z,98959.22
2022-11-30T01:47:19.218Z,98963.84
2022-11-30T01:49:45.338Z,98968.34
2022-11-30T01:52:11.583Z,98969.94
2022-11-30T01:54:38.229Z,98972.34
2022-11-30T01:57:04.326Z,98972.84
2022-11-30T01:59:30.425Z,98975.19
2022-11-30T02:01:56.533Z,98965.88
2022-11-30T02:04:22.631Z,98971.22
2022-11-30T02:06:48.719Z,98959.34
2022-11-30T02:09:15.462Z,98962.72
2022-11-30T02:11:41.548Z,98956.16
2022-11-30T02:14:07.643Z,98967.88
2022-11-30T02:16:33.758Z,98963.44
2022-11-30T02:18:59.931Z,98958.63
2022-11-30T02:21:26.017Z,98962.34
2022-11-30T02:23:52.138Z,98959.88
2022-11-30T02:26:18.377Z,98957.69
2022-11-30T02:28:44.667Z,98949.91
2022-11-30T02:31:10.820Z,98949.13
2022-11-30T02:33:36.967Z,98947.94
2022-11-30T02:36:03.089Z,98947.41
2022-11-30T02:38:29.259Z,98958.19
2022-11-30T02:40:55.384Z,98960.81
2022-11-30T02:43:21.601Z,98962.16
2022-11-30T02:45:47.938Z,98955.94
2022-11-30T02:48:14.050Z,98952.59
2022-11-30T02:50:40.152Z,98963.25
2022-11-30T02:53:06.277Z,98960.09
2022-11-30T02:55:32.371Z,98963.72
2022-11-30T02:57:59.546Z,98959.78
2022-11-30T03:00:25.795Z,98958.81
2022-11-30T03:02:51.958Z,98958.81
2022-11-30T03:05:18.079Z,98961.44
2022-11-30T03:07:44.255Z,98961.34
2022-11-30T03:10:10.381Z,98958.72
2022-11-30T03:12:36.481Z,98963.44
2022-11-30T03:15:02.936Z,98954.84
2022-11-30T03:17:29.061Z,98961.53
2022-11-30T03:19:55.152Z,98955.28
2022-11-30T03:22:21.261Z,98955.44
2022-11-30T03:24:47.770Z,98958.78
2022-11-30T03:27:14.018Z,98960.44
2022-11-30T03:29:40.614Z,98962.94
2022-11-30T03:32:06.741Z,98965.13
2022-11-30T03:34:32.835Z,98969.53
2022-11-30T03:36:58.952Z,98970.00
2022-11-30T03:39:25.096Z,98967.28
2022-11-30T03:41:51.232Z,98962.50
2022-11-30T03:44:17.384Z,98972.19
2022-11-30T03:46:43.499Z,98972.00
2022-11-30T03:49:09.656Z,98976.53
2022-11-30T03:51:35.773Z,98975.00
2022-11-30T03:54:01.872Z,98977.16
2022-11-30T03:56:27.972Z,98986.13
2022-11-30T03:58:54.617Z,98985.41
2022-11-30T04:01:20.981Z,98982.81
2022-11-30T04:03:47.177Z,98989.00
2022-11-30T04:06:13.300Z,98983.75
2022-11-30T04:08:39.416Z,98985.91
2022-11-30T04:11:05.565Z,98993.06
2022-11-30T04:13:31.791Z,98986.88
2022-11-30T04:15:57.980Z,98987.31
2022-11-30T04:18:31.626Z,98991.03
2022-11-30T04:20:57.847Z,98983.72
2022-11-30T04:23:23.934Z,98987.56
2022-11-30T04:25:50.031Z,98993.44
2022-11-30T04:28:16.149Z,98993.50
2022-11-30T04:30:42.249Z,99000.19
2022-11-30T04:33:08.395Z,99002.81
2022-11-30T04:35:34.501Z,99002.88
2022-11-30T04:38:00.601Z,99002.28
2022-11-30T04:40:26.851Z,99002.88
2022-11-30T04:42:52.973Z,98999.19
2022-11-30T04:45:19.067Z,99007.88
2022-11-30T04:47:45.157Z,99011.91
2022-11-30T04:50:11.258Z,99012.97
2022-11-30T04:52:37.343Z,99014.06
2022-11-30T04:55:03.784Z,99021.34
2022-11-30T04:57:29.898Z,99024.22
2022-11-30T04:59:56.011Z,99023.22
2022-11-30T05:02:22.101Z,99022.75
2022-11-30T05:04:48.502Z,99029.41
2022-11-30T05:07:17.622Z,99019.63
2022-11-30T05:09:43.730Z,99021.69
2022-11-30T05:12:09.836Z,99030.94
2022-11-30T05:14:35.930Z,99030.41
2022-11-30T05:17:02.026Z,99035.41
2022-11-30T05:19:28.136Z,99032.25
2022-11-30T05:21:54.233Z,99038.91
2022-11-30T05:24:20.330Z,99036.34
2022-11-30T05:26:46.455Z,99036.34
2022-11-30T05:29:12.539Z,99041.00
2022-11-30T05:31:38.673Z,99046.00
2022-11-30T05:34:04.819Z,99040.56
2022-11-30T05:36:30.910Z,99039.72
2022-11-30T05:38:56.992Z,99041.06
2022-11-30T05:41:23.119Z,99039.78
2022-11-30T05:43:49.206Z,99045.41
2022-11-30T05:46:15.335Z,99044.66
2022-11-30T05:48:41.503Z,99045.88
2022-11-30T05:51:07.625Z,99035.38
2022-11-30T05:53:33.713Z,99040.38
2022-11-30T05:55:59.817Z,99039.31
2022-11-30T05:58:25.940Z,99035.94
2022-11-30T06:00:52.064Z,99040.66
2022-11-30T06:03:18.236Z,99043.97
2022-11-30T06:05:44.385Z,99040.06
2022-11-30T06:08:13.373Z,99041.50
2022-11-30T06:10:39.487Z,99044.56
2022-11-30T06:13:05.568Z,99042.69
2022-11-30T06:15:31.660Z,99033.66
2022-11-30T06:17:57.772Z,99042.09
2022-11-30T06:20:23.879Z,99038.16
2022-11-30T06:22:49.998Z,99044.13
2022-11-30T06:25:17.063Z,99038.44
2022-11-30T06:27:43.190Z,99045.47
2022-11-30T06:30:09.281Z,99032.09
2022-11-30T06:32:35.395Z,99031.13
2022-11-30T06:35:01.506Z,99029.34
2022-11-30T06:37:27.598Z,99036.88
2022-11-30T06:40:08.956Z,99043.34
2022-11-30T06:42:35.053Z,99045.97
2022-11-30T06:45:01.172Z,99042.66
2022-11-30T06:47:27.254Z,99039.16
2022-11-30T06:49:53.406Z,99042.75
2022-11-30T06:52:19.641Z,99042.75
2022-11-30T06:54:46.120Z,99042.75
2022-11-30T06:57:12.541Z,99054.22
2022-11-30T06:59:38.694Z,99057.00
2022-11-30T07:02:09.708Z,99062.09
2022-11-30T07:04:38.339Z,99056.75
2022-11-30T07:07:04.490Z,99057.78
2022-11-30T07:09:30.606Z,99054.38
2022-11-30T07:11:56.716Z,99065.53
2022-11-30T07:14:22.931Z,99064.47
2022-11-30T07:16:49.212Z,99063.41
2022-11-30T07:19:15.337Z,99071.41
2022-11-30T07:21:41.452Z,99064.94
2022-11-30T07:24:07.555Z,99072.56
2022-11-30T07:26:33.712Z,99076.13
2022-11-30T07:28:59.839Z,99076.31
2022-11-30T07:31:26.063Z,99077.47
2022-11-30T07:33:52.229Z,99083.66
2022-11-30T07:36:18.332Z,99090.09
2022-11-30T07:38:44.426Z,99096.00
2022-11-30T07:41:10.525Z,99089.94
2022-11-30T07:43:36.650Z,99097.78
2022-11-30T07:46:02.869Z,99097.16
2022-11-30T07:48:29.072Z,99099.00
2022-11-30T07:51:01.662Z,99095.19
2022-11-30T07:53:27.805Z,99102.13
2022-11-30T07:55:57.014Z,99097.94
2022-11-30T07:58:23.285Z,99104.38
2022-11-30T08:00:49.498Z,99105.69
2022-11-30T08:03:15.607Z,99105.44
2022-11-30T08:05:41.713Z,99100.56
2022-11-30T08:08:08.027Z,99109.50
2022-11-30T08:10:34.183Z,99105.50
2022-11-30T08:13:00.372Z,99116.31
2022-11-30T08:15:32.625Z,99107.59
2022-11-30T08:17:59.723Z,99109.03
2022-11-30T08:20:25.939Z,99111.28
2022-11-30T08:22:52.102Z,99108.69
2022-11-30T08:25:21.406Z,99116.56
2022-11-30T08:27:48.021Z,99113.84
2022-11-30T08:30:14.115Z,99115.44
2022-11-30T08:32:40.206Z,99111.56
2022-11-30T08:35:06.322Z,99113.94
2022-11-30T08:37:32.409Z,99121.53
2022-11-30T08:39:58.510Z,99117.13
2022-11-30T08:42:24.736Z,99124.72
2022-11-30T08:44:50.831Z,99120.59
2022-11-30T08:47:16.954Z,99120.19
2022-11-30T08:49:43.126Z,99126.91
2022-11-30T08:52:16.985Z,99124.53
2022-11-30T08:54:43.906Z,99130.66
2022-11-30T08:57:10.017Z,99131.09
2022-11-30T08:59:36.117Z,99128.47
2022-11-30T09:02:02.247Z,99133.03
2022-11-30T09:04:28.626Z,99137.63
2022-11-30T09:06:54.736Z,99138.56
2022-11-30T09:09:20.861Z,99139.31
2022-11-30T09:11:46.988Z,99142.88
2022-11-30T09:14:13.075Z,99141.84
2022-11-30T09:16:39.176Z,99147.16
2022-11-30T09:19:05.342Z,99141.31
2022-11-30T09:21:31.554Z,99156.25
2022-11-30T09:23:57.657Z,99153.38
2022-11-30T09:26:23.824Z,99151.34
2022-11-30T09:28:49.923Z,99148.13
2022-11-30T09:31:16.070Z,99157.94
2022-11-30T09:33:42.221Z,99146.97
2022-11-30T09:36:08.322Z,99150.59
2022-11-30T09:38:34.421Z,99152.63
2022-11-30T09:41:00.554Z,99142.72
2022-11-30T09:43:26.692Z,99157.78
2022-11-30T09:45:52.821Z,99149.63
2022-11-30T09:48:18.967Z,99151.41
2022-11-30T09:50:45.080Z,99149.03
2022-11-30T09:53:11.162Z,99145.75
2022-11-30T09:55:37.269Z,99156.09
2022-11-30T09:58:03.359Z,99154.94
2022-11-30T10:00:29.455Z,99149.53
2022-11-30T10:02:55.690Z,99156.00
2022-11-30T10:05:21.895Z,99154.09
2022-11-30T10:07:48.066Z,99157.88
2022-11-30T10:10:31.756Z,99154.28
2022-11-30T10:12:58.978Z,99146.56
2022-11-30T10:15:25.100Z,99145.16
2022-11-30T10:17:51.196Z,99145.88
2022-11-30T10:20:17.309Z,99143.16
2022-11-30T10:22:43.493Z,99139.84
2022-11-30T10:25:12.026Z,99149.75
2022-11-30T10:27:38.320Z,99150.66
2022-11-30T10:30:04.484Z,99149.25
2022-11-30T10:32:30.577Z,99145.56
2022-11-30T10:34:56.677Z,99154.97
2022-11-30T10:37:22.800Z,99147.59
2022-11-30T10:39:48.907Z,99142.63
2022-11-30T10:42:15.006Z,99142.09
2022-11-30T10:44:41.122Z,99147.59
2022-11-30T10:47:07.225Z,99146.91
2022-11-30T10:49:33.319Z,99144.84
2022-11-30T10:51:59.438Z,99137.28
2022-11-30T10:54:25.574Z,99141.47
2022-11-30T10:56:51.667Z,99139.13
2022-11-30T10:59:17.774Z,99141.03
2022-11-30T11:01:43.950Z,99136.75
2022-11-30T11:04:10.135Z,99134.59
2022-11-30T11:06:36.369Z,99134.59
2022-11-30T11:09:02.569Z,99127.91
2022-11-30T11:11:28.655Z,99128.16
2022-11-30T11:13:54.771Z,99131.50
2022-11-30T11:16:20.927Z,99134.47
2022-11-30T11:18:47.030Z,99131.41
2022-11-30T11:21:13.150Z,99135.19
2022-11-30T11:23:39.294Z,99133.16
2022-11-30T11:26:05.403Z,99138.16
2022-11-30T11:28:31.518Z,99138.56
2022-11-30T11:30:57.668Z,99136.03
2022-11-30T11:33:23.807Z,99134.81
2022-11-30T11:35:50.398Z,99135.19
2022-11-30T11:38:16.576Z,99137.47
2022-11-30T11:40:42.711Z,99126.59
2022-11-30T11:43:08.833Z,99135.63
2022-11-30T11:45:34.958Z,99138.06
2022-11-30T11:48:01.069Z,99141.06
2022-11-30T11:51:04.324Z,99139.63
2022-11-30T11:53:13.376Z,99138.84
2022-11-30T11:55:39.535Z,99140.78
2022-11-30T11:58:05.628Z,99140.53
2022-11-30T12:00:31.720Z,99145.31
2022-11-30T12:02:57.888Z,99135.56
2022-11-30T12:05:23.978Z,99143.66
2022-11-30T12:07:50.410Z,99147.34
2022-11-30T12:10:43.630Z,99147.94
2022-11-30T12:13:02.698Z,99147.25
2022-11-30T12:15:28.864Z,99146.91
2022-11-30T12:17:55.028Z,99140.59
2022-11-30T12:20:21.124Z,99148.47
2022-11-30T12:22:47.243Z,99145.97
2022-11-30T12:25:13.342Z,99144.88
2022-11-30T12:27:39.447Z,99158.72
2022-11-30T12:30:06.049Z,99164.22
2022-11-30T12:32:32.136Z,99155.22
2022-11-30T12:34:58.235Z,99154.88
2022-11-30T12:37:24.389Z,99155.22
2022-11-30T12:39:50.675Z,99148.88
2022-11-30T12:42:16.860Z,99142.44
2022-11-30T12:44:42.972Z,99147.94
2022-11-30T12:47:09.059Z,99149.00
2022-11-30T12:49:35.175Z,99148.66
2022-11-30T12:52:01.281Z,99151.50
2022-11-30T12:54:27.396Z,99159.16
2022-11-30T12:56:53.577Z,99167.28
2022-11-30T12:59:19.680Z,99165.34
2022-11-30T13:01:45.861Z,99163.69
2022-11-30T13:04:11.995Z,99162.72
2022-11-30T13:06:38.120Z,99167.72
2022-11-30T13:09:04.235Z,99163.28
2022-11-30T13:11:30.332Z,99167.56
2022-11-30T13:13:56.448Z,99164.47
2022-11-30T13:16:22.602Z,99164.13
2022-11-30T13:18:48.762Z,99162.56
2022-11-30T13:21:14.959Z,99159.09
2022-11-30T13:23:41.060Z,99166.16
2022-11-30T13:26:08.582Z,99164.28
2022-11-30T13:28:35.485Z,99162.00
2022-11-30T13:31:01.638Z,99156.63
2022-11-30T13:33:27.841Z,99160.59
2022-11-30T13:35:54.065Z,99160.91
2022-11-30T13:38:36.269Z,99163.22
2022-11-30T13:41:03.458Z,99153.78
2022-11-30T13:43:29.558Z,99159.84
2022-11-30T13:45:55.671Z,99163.28
2022-11-30T13:48:21.788Z,99159.22
2022-11-30T13:50:47.978Z,99159.16
2022-11-30T13:53:14.085Z,99165.84
2022-11-30T13:55:40.218Z,99163.41
2022-11-30T13:58:06.315Z,99163.53
2022-11-30T14:00:32.496Z,99169.22
2022-11-30T14:02:58.669Z,99162.69
2022-11-30T14:05:24.768Z,99170.19
2022-11-30T14:07:50.925Z,99171.16
2022-11-30T14:10:17.085Z,99172.50
2022-11-30T14:12:43.179Z,99175.09
2022-11-30T14:15:09.271Z,99170.44
2022-11-30T14:17:35.398Z,99175.81
2022-11-30T14:20:01.523Z,99171.16
2022-11-30T14:22:27.623Z,99175.81
2022-11-30T14:24:53.753Z,99180.16
2022-11-30T14:27:19.837Z,99176.22
2022-11-30T14:29:46.376Z,99181.00
2022-11-30T14:32:12.683Z,99186.50
2022-11-30T14:34:38.781Z,99191.81
2022-11-30T14:37:04.873Z,99183.94
2022-11-30T14:39:31.036Z,99189.44
2022-11-30T14:41:57.145Z,99184.53
2022-11-30T14:44:23.244Z,99196.84
2022-11-30T14:46:49.402Z,99189.84
2022-11-30T14:49:15.508Z,99197.97
2022-11-30T14:51:41.592Z,99186.69
2022-11-30T14:54:07.712Z,99195.38
2022-11-30T14:56:33.790Z,99189.16
2022-11-30T14:58:59.888Z,99197.75
2022-11-30T15:01:26.034Z,99197.03
2022-11-30T15:03:52.165Z,99199.81
2022-11-30T15:06:18.666Z,99200.28
2022-11-30T15:08:44.788Z,99200.47
2022-11-30T15:11:10.878Z,99193.72
2022-11-30T15:13:36.976Z,99196.47
2022-11-30T15:16:03.132Z,99195.19
2022-11-30T15:18:29.266Z,99197.03
2022-11-30T15:20:55.366Z,99198.38
2022-11-30T15:23:21.488Z,99188.75
2022-11-30T15:25:47.595Z,99192.25
2022-11-30T15:28:13.693Z,99194.84
2022-11-30T15:30:39.800Z,99198.16
2022-11-30T15:33:05.900Z,99188.09
2022-11-30T15:35:57.021Z,99194.91
2022-11-30T15:38:18.139Z,99198.16
2022-11-30T15:40:46.724Z,99197.84
2022-11-30T15:43:15.072Z,99201.00
2022-11-30T15:45:41.556Z,99199.63
2022-11-30T15:48:07.729Z,99200.38
2022-11-30T15:50:33.819Z,99201.22
2022-11-30T15:52:59.941Z,99204.56
2022-11-30T15:55:26.037Z,99198.91
2022-11-30T15:57:52.125Z,99209.72
2022-11-30T16:00:18.235Z,99215.72
2022-11-30T16:02:44.412Z,99211.38
2022-11-30T16:05:14.120Z,99224.94
2022-11-30T16:07:41.096Z,99217.00
2022-11-30T16:10:07.236Z,99213.22
2022-11-30T16:12:33.327Z,99216.91
2022-11-30T16:14:59.440Z,99217.97
2022-11-30T16:17:25.539Z,99221.91
2022-11-30T16:19:51.712Z,99211.75
2022-11-30T16:22:17.859Z,99221.09
2022-11-30T16:24:43.960Z,99229.31
2022-11-30T16:27:10.064Z,99222.19
2022-11-30T16:29:36.196Z,99226.19
2022-11-30T16:32:02.380Z,99222.47
2022-11-30T16:34:28.547Z,99224.53
2022-11-30T16:36:54.671Z,99227.75
2022-11-30T16:39:20.781Z,99233.69
2022-11-30T16:41:46.923Z,99227.16
2022-11-30T16:44:13.342Z,99236.31
2022-11-30T16:46:39.431Z,99240.84
2022-11-30T16:49:05.538Z,99241.88
2022-11-30T16:51:31.677Z,99242.94
2022-11-30T16:53:57.790Z,99244.88
2022-11-30T16:56:23.879Z,99241.94
2022-11-30T16:58:49.994Z,99252.69
2022-11-30T17:01:16.167Z,99253.72
2022-11-30T17:03:42.317Z,99240.47
2022-11-30T17:06:08.421Z,99245.44
2022-11-30T17:08:34.522Z,99247.41
2022-11-30T17:11:00.630Z,99247.69
2022-11-30T17:13:26.727Z,99250.88
2022-11-30T17:15:52.837Z,99253.94
2022-11-30T17:18:18.933Z,99255.78
2022-11-30T17:20:45.053Z,99252.75
2022-11-30T17:23:11.143Z,99255.78
2022-11-30T17:25:37.236Z,99257.69
2022-11-30T17:28:03.342Z,99266.19
2022-11-30T17:30:29.470Z,99265.91
2022-11-30T17:32:55.617Z,99266.00
2022-11-30T17:35:21.737Z,99271.44
2022-11-30T17:37:47.832Z,99266.09
2022-11-30T17:40:13.920Z,99265.81
2022-11-30T17:42:40.030Z,99266.31
2022-11-30T17:45:06.131Z,99272.81
2022-11-30T17:47:32.229Z,99273.03
2022-11-30T17:50:01.126Z,99282.59
2022-11-30T17:52:27.264Z,99280.81
2022-11-30T17:54:53.365Z,99286.16
2022-11-30T17:57:19.477Z,99290.06
2022-11-30T17:59:45.556Z,99292.25
2022-11-30T18:02:11.716Z,99280.63
2022-11-30T18:04:37.855Z,99288.78
2022-11-30T18:07:03.939Z,99292.34
2022-11-30T18:09:30.033Z,99293.81
2022-11-30T18:11:56.153Z,99294.97
2022-11-30T18:14:22.252Z,99297.25
2022-11-30T18:16:48.402Z,99303.97
2022-11-30T18:19:14.641Z,99298.28
2022-11-30T18:21:40.752Z,99295.50
2022-11-30T18:24:06.848Z,99300.75
2022-11-30T18:26:32.961Z,99304.41
2022-11-30T18:28:59.053Z,99303.16
2022-11-30T18:31:25.248Z,99303.28
2022-11-30T18:33:51.376Z,99317.41
2022-11-30T18:36:17.459Z,99314.59
2022-11-30T18:38:43.564Z,99315.94
2022-11-30T18:41:09.707Z,99319.31
2022-11-30T18:43:35.810Z,99303.59
2022-11-30T18:46:01.951Z,99319.84
2022-11-30T18:48:28.467Z,99314.91
2022-11-30T18:50:54.560Z,99313.44
2022-11-30T18:53:20.659Z,99309.75
2022-11-30T18:55:46.790Z,99313.63
2022-11-30T18:58:12.885Z,99319.63
2022-11-30T19:00:38.971Z,99316.78
2022-11-30T19:03:05.133Z,99325.63
2022-11-30T19:05:31.284Z,99324.34
2022-11-30T19:07:57.501Z,99311.66
2022-11-30T19:10:23.652Z,99309.41
2022-11-30T19:12:49.761Z,99314.06
2022-11-30T19:15:15.858Z,99311.84
2022-11-30T19:17:41.964Z,99325.16
2022-11-30T19:20:08.067Z,99319.41
2022-11-30T19:22:34.170Z,99324.63
2022-11-30T19:25:00.531Z,99316.91
2022-11-30T19:27:26.788Z,99320.75
2022-11-30T19:29:52.911Z,99321.94
2022-11-30T19:32:19.067Z,99319.31
2022-11-30T19:34:45.236Z,99323.00
2022-11-30T19:37:11.398Z,99320.16
2022-11-30T19:39:37.502Z,99321.41
2022-11-30T19:42:03.605Z,99325.50
2022-11-30T19:44:29.704Z,99318.69
2022-11-30T19:46:55.828Z,99331.19
2022-11-30T19:49:21.914Z,99330.88
2022-11-30T19:51:48.080Z,99325.50
2022-11-30T19:54:15.017Z,99330.94
2022-11-30T19:56:41.125Z,99334.31
2022-11-30T19:59:07.256Z,99336.00
2022-11-30T20:01:33.458Z,99335.75
2022-11-30T20:03:59.608Z,99334.09
2022-11-30T20:06:25.710Z,99342.72
2022-11-30T20:08:51.824Z,99348.56
2022-11-30T20:11:17.907Z,99346.25
2022-11-30T20:13:44.009Z,99348.38
2022-11-30T20:16:10.195Z,99349.53
2022-11-30T20:18:38.248Z,99349.31
2022-11-30T20:21:07.470Z,99347.97
2022-11-30T20:23:33.608Z,99347.44
2022-11-30T20:25:59.707Z,99347.84
2022-11-30T20:28:25.804Z,99347.13
2022-11-30T20:30:51.961Z,99347.50
2022-11-30T20:33:19.513Z,99349.84
2022-11-30T20:35:45.621Z,99350.78
2022-11-30T20:38:11.760Z,99347.63
2022-11-30T20:40:37.854Z,99355.72
2022-11-30T20:43:03.948Z,99346.88
2022-11-30T20:45:30.172Z,99346.69
2022-11-30T20:47:56.269Z,99353.19
2022-11-30T20:50:22.368Z,99348.13
2022-11-30T20:52:48.552Z,99347.94
2022-11-30T20:55:14.661Z,99355.59
2022-11-30T20:57:40.767Z,99357.28
2022-11-30T21:00:11.629Z,99355.06
2022-11-30T21:02:39.218Z,99351.72
2022-11-30T21:05:05.361Z,99352.44
2022-11-30T21:07:31.500Z,99363.34
2022-11-30T21:09:57.633Z,99357.47
2022-11-30T21:12:23.752Z,99356.56
2022-11-30T21:14:50.052Z,99356.88
2022-11-30T21:17:16.355Z,99366.75
2022-11-30T21:19:42.479Z,99357.59
2022-11-30T21:22:08.587Z,99358.84
2022-11-30T21:24:34.707Z,99363.56
2022-11-30T21:27:00.807Z,99358.63
2022-11-30T21:29:26.911Z,99357.28
2022-11-30T21:31:53.000Z,99354.03
2022-11-30T21:34:19.100Z,99353.72
2022-11-30T21:36:45.232Z,99360.22
2022-11-30T21:39:11.326Z,99361.19
2022-11-30T21:41:37.414Z,99363.38
2022-11-30T21:44:03.534Z,99362.66
2022-11-30T21:46:29.722Z,99366.22
2022-11-30T21:48:55.888Z,99363.28
2022-11-30T21:51:22.047Z,99372.94
2022-11-30T21:53:48.148Z,99374.28
2022-11-30T21:56:14.248Z,99371.66
2022-11-30T21:58:40.905Z,99369.13
2022-11-30T22:01:07.053Z,99370.41
2022-11-30T22:03:33.259Z,99367.25
2022-11-30T22:05:59.459Z,99363.38
2022-11-30T22:08:25.549Z,99363.88
2022-11-30T22:10:51.648Z,99359.06
2022-11-30T22:13:17.753Z,99366.72
2022-11-30T22:15:43.874Z,99365.78
2022-11-30T22:18:09.997Z,99359.91
2022-11-30T22:20:36.132Z,99355.72
2022-11-30T22:23:02.248Z,99357.72
2022-11-30T22:25:28.336Z,99357.16
2022-11-30T22:27:54.451Z,99360.56
2022-11-30T22:30:20.562Z,99357.28
2022-11-30T22:32:46.658Z,99353.72
2022-11-30T22:35:12.771Z,99351.41
2022-11-30T22:37:38.885Z,99362.84
2022-11-30T22:40:05.051Z,99358.66
2022-11-30T22:42:31.156Z,99351.63
2022-11-30T22:44:57.236Z,99356.75
2022-11-30T22:47:23.321Z,99356.66
2022-11-30T22:49:49.631Z,99354.13
2022-11-30T22:52:15.889Z,99353.31
2022-11-30T22:54:42.062Z,99354.16
2022-11-30T22:57:08.273Z,99358.03
2022-11-30T22:59:34.374Z,99359.47
2022-11-30T23:02:00.467Z,99360.53
2022-11-30T23:04:27.122Z,99366.72
2022-11-30T23:06:53.248Z,99368.69
2022-11-30T23:09:19.365Z,99364.28
2022-11-30T23:11:45.532Z,99363.38
2022-11-30T23:14:11.642Z,99358.34
2022-11-30T23:16:37.783Z,99359.47
2022-11-30T23:19:03.957Z,99358.22
2022-11-30T23:21:30.445Z,99353.81
2022-11-30T23:23:56.724Z,99357.06
2022-11-30T23:26:22.829Z,99356.47
2022-11-30T23:28:48.968Z,99352.88
2022-11-30T23:31:33.871Z,99358.25
2022-11-30T23:34:01.273Z,99359.78
2022-11-30T23:36:27.381Z,99357.91
2022-11-30T23:38:53.471Z,99354.03
2022-11-30T23:41:19.580Z,99356.56
2022-11-30T23:43:45.672Z,99357.38
2022-11-30T23:46:11.753Z,99351.84
2022-11-30T23:48:37.893Z,99358.22
2022-11-30T23:51:03.985Z,99354.66
2022-11-30T23:53:30.071Z,99352.06
2022-11-30T23:55:56.700Z,99357.81
2022-11-30T23:58:22.820Z,99356.66
